createdAt,value
2019-05-17T00:03:01.639Z,75.81
2019-05-17T00:06:07.036Z,76.06
2019-05-17T00:09:11.881Z,76.39
2019-05-17T00:12:16.727Z,76.89
2019-05-17T00:15:21.626Z,77.30
2019-05-17T00:18:26.559Z,76.67
2019-05-17T00:21:31.489Z,76.78
2019-05-17T00:24:36.970Z,77.13
2019-05-17T00:27:41.695Z,75.69
2019-05-17T00:30:46.719Z,75.61
2019-05-17T00:33:51.881Z,75.48
2019-05-17T00:36:57.434Z,76.53
2019-05-17T00:40:02.023Z,76.94
2019-05-17T00:43:07.031Z,77.17
2019-05-17T00:46:12.329Z,76.68
2019-05-17T00:49:17.343Z,76.59
2019-05-17T00:52:22.394Z,76.86
2019-05-17T00:55:26.923Z,77.04
2019-05-17T00:58:31.607Z,78.01
2019-05-17T01:01:36.590Z,78.03
2019-05-17T01:04:41.614Z,77.17
2019-05-17T01:07:47.051Z,77.39
2019-05-17T01:10:52.062Z,77.07
2019-05-17T01:13:58.635Z,77.30
2019-05-17T01:17:03.273Z,77.54
2019-05-17T01:20:09.476Z,76.04
2019-05-17T01:23:16.534Z,76.78
2019-05-17T01:26:21.109Z,76.54
2019-05-17T01:29:26.818Z,76.84
2019-05-17T01:32:31.939Z,76.79
2019-05-17T01:35:37.599Z,76.95
2019-05-17T01:38:42.580Z,76.84
2019-05-17T01:41:47.642Z,77.01
2019-05-17T01:44:52.373Z,76.03
2019-05-17T01:47:57.136Z,75.21
2019-05-17T01:51:02.206Z,75.34
2019-05-17T01:54:06.985Z,75.99
2019-05-17T01:57:12.016Z,75.79
2019-05-17T02:00:18.196Z,76.81
2019-05-17T02:03:22.791Z,76.69
2019-05-17T02:06:27.661Z,76.08
2019-05-17T02:09:37.906Z,75.37
2019-05-17T02:12:39.172Z,76.69
2019-05-17T02:15:44.191Z,76.02
2019-05-17T02:18:49.145Z,77.01
2019-05-17T02:21:53.859Z,77.18
2019-05-17T02:24:58.527Z,77.45
2019-05-17T02:28:03.321Z,76.26
2019-05-17T02:31:08.210Z,75.99
2019-05-17T02:34:14.161Z,76.81
2019-05-17T02:37:19.112Z,76.20
2019-05-17T02:40:23.845Z,76.16
2019-05-17T02:43:28.681Z,76.91
2019-05-17T02:46:33.782Z,77.25
2019-05-17T02:49:38.536Z,76.27
2019-05-17T02:52:44.093Z,76.28
2019-05-17T02:55:48.723Z,76.44
2019-05-17T02:58:53.507Z,76.04
2019-05-17T03:01:58.009Z,77.15
2019-05-17T03:05:04.075Z,76.28
2019-05-17T03:08:08.981Z,76.19
2019-05-17T03:11:13.812Z,76.72
2019-05-17T03:14:18.229Z,76.45
2019-05-17T03:17:23.088Z,77.23
2019-05-17T03:20:27.685Z,76.55
2019-05-17T03:23:32.859Z,75.68
2019-05-17T03:26:37.585Z,76.69
2019-05-17T03:29:42.604Z,77.33
2019-05-17T03:32:54.485Z,77.38
2019-05-17T03:35:56.799Z,77.96
2019-05-17T03:39:03.179Z,76.93
2019-05-17T03:42:08.203Z,77.74
2019-05-17T03:45:14.291Z,77.86
2019-05-17T03:48:18.908Z,77.14
2019-05-17T03:51:23.553Z,76.80
2019-05-17T03:54:28.124Z,76.85
2019-05-17T03:57:32.969Z,76.91
2019-05-17T04:00:37.706Z,76.96
2019-05-17T04:03:43.352Z,76.65
2019-05-17T04:06:48.135Z,76.52
2019-05-17T04:09:53.370Z,77.52
2019-05-17T04:12:57.995Z,77.52
2019-05-17T04:16:07.821Z,77.42
2019-05-17T04:19:09.457Z,77.28
2019-05-17T04:22:14.202Z,77.62
2019-05-17T04:25:18.630Z,78.08
2019-05-17T04:28:23.332Z,78.76
2019-05-17T04:31:30.717Z,78.43
2019-05-17T04:34:34.143Z,78.44
2019-05-17T04:37:38.878Z,79.07
2019-05-17T04:40:43.483Z,79.40
2019-05-17T04:43:48.359Z,79.83
2019-05-17T04:46:53.606Z,79.49
2019-05-17T04:49:58.213Z,79.73
2019-05-17T04:53:03.129Z,79.11
2019-05-17T04:56:07.974Z,78.91
2019-05-17T04:59:13.876Z,79.15
2019-05-17T05:02:18.618Z,78.85
2019-05-17T05:05:23.392Z,79.33
2019-05-17T05:08:28.125Z,79.42
2019-05-17T05:11:33.081Z,79.70
2019-05-17T05:14:37.573Z,79.50
2019-05-17T05:17:42.776Z,80.18
2019-05-17T05:20:47.770Z,80.12
2019-05-17T05:23:52.494Z,80.04
2019-05-17T05:26:56.930Z,80.04
2019-05-17T05:30:03.124Z,80.10
2019-05-17T05:33:07.524Z,79.77
2019-05-17T05:36:11.977Z,79.42
2019-05-17T05:39:16.422Z,79.22
2019-05-17T05:42:22.108Z,78.67
2019-05-17T05:45:26.638Z,79.01
2019-05-17T05:48:32.653Z,78.34
2019-05-17T05:51:37.629Z,78.03
2019-05-17T05:54:42.104Z,77.80
2019-05-17T05:57:46.539Z,77.43
2019-05-17T06:00:53.112Z,77.30
2019-05-17T06:03:57.473Z,77.58
2019-05-17T06:07:02.919Z,76.28
2019-05-17T06:10:12.953Z,75.76
2019-05-17T06:13:16.943Z,75.08
2019-05-17T06:16:22.786Z,75.11
2019-05-17T06:19:27.435Z,74.35
2019-05-17T06:22:32.208Z,74.58
2019-05-17T06:25:36.659Z,74.62
2019-05-17T06:28:42.465Z,73.04
2019-05-17T06:31:46.997Z,74.01
2019-05-17T06:34:51.864Z,71.71
2019-05-17T06:37:56.584Z,71.09
2019-05-17T06:41:01.737Z,70.96
2019-05-17T06:44:06.328Z,70.79
2019-05-17T06:47:11.893Z,67.56
2019-05-17T06:50:16.993Z,66.58
2019-05-17T06:53:21.939Z,65.55
2019-05-17T06:56:26.604Z,64.77
2019-05-17T06:59:31.049Z,62.83
2019-05-17T07:02:36.147Z,64.27
2019-05-17T07:05:42.639Z,62.91
2019-05-17T07:08:49.442Z,61.82
2019-05-17T07:11:53.530Z,58.56
2019-05-17T07:15:01.451Z,59.68
2019-05-17T07:18:04.919Z,60.76
2019-05-17T07:21:10.150Z,58.60
2019-05-17T07:24:14.917Z,58.46
2019-05-17T07:27:19.491Z,59.07
2019-05-17T07:30:24.114Z,57.96
2019-05-17T07:33:30.499Z,58.77
2019-05-17T07:36:35.573Z,56.71
2019-05-17T07:39:42.299Z,58.15
2019-05-17T07:42:46.493Z,58.29
2019-05-17T07:45:51.205Z,57.45
2019-05-17T07:48:55.651Z,57.15
2019-05-17T07:52:00.713Z,57.29
2019-05-17T07:55:07.418Z,55.56
2019-05-17T07:58:11.864Z,55.56
2019-05-17T08:01:16.721Z,57.75
2019-05-17T08:04:21.164Z,56.79
2019-05-17T08:07:25.957Z,56.87
2019-05-17T08:10:30.688Z,56.49
2019-05-17T08:13:35.141Z,55.07
2019-05-17T08:16:39.853Z,55.82
2019-05-17T08:19:44.295Z,55.53
2019-05-17T08:22:50.256Z,56.24
2019-05-17T08:25:56.299Z,54.79
2019-05-17T08:29:00.956Z,56.37
2019-05-17T08:32:05.436Z,54.33
2019-05-17T08:35:11.574Z,51.44
2019-05-17T08:38:16.156Z,51.15
2019-05-17T08:41:20.931Z,50.84
2019-05-17T08:44:25.417Z,51.62
2019-05-17T08:47:30.222Z,52.11
2019-05-17T08:50:34.749Z,53.62
2019-05-17T08:53:39.877Z,50.40
2019-05-17T08:56:44.728Z,50.15
2019-05-17T08:59:49.737Z,49.88
2019-05-17T09:02:54.299Z,52.14
2019-05-17T09:06:02.382Z,48.96
2019-05-17T09:09:09.825Z,49.45
2019-05-17T09:12:13.290Z,49.48
2019-05-17T09:15:20.177Z,49.45
2019-05-17T09:18:23.917Z,49.63
2019-05-17T09:21:31.312Z,48.83
2019-05-17T09:24:34.781Z,49.08
2019-05-17T09:27:39.894Z,48.73
2019-05-17T09:30:44.450Z,47.06
2019-05-17T09:33:49.698Z,46.51
2019-05-17T09:36:54.218Z,47.64
2019-05-17T09:39:59.835Z,49.86
2019-05-17T09:43:04.797Z,46.52
2019-05-17T09:46:10.644Z,48.28
2019-05-17T09:49:15.368Z,48.98
2019-05-17T09:52:20.239Z,49.17
2019-05-17T09:55:24.947Z,47.72
2019-05-17T09:58:29.949Z,46.18
2019-05-17T10:01:34.817Z,46.64
2019-05-17T10:04:39.560Z,46.64
2019-05-17T10:07:44.380Z,45.84
2019-05-17T10:11:04.242Z,45.21
2019-05-17T10:13:58.355Z,47.53
2019-05-17T10:17:01.750Z,46.32
2019-05-17T10:20:10.992Z,45.81
2019-05-17T10:23:15.716Z,46.75
2019-05-17T10:26:20.232Z,45.58
2019-05-17T10:29:24.676Z,45.93
2019-05-17T10:32:30.988Z,46.56
2019-05-17T10:35:35.688Z,43.60
2019-05-17T10:38:40.203Z,45.46
2019-05-17T10:41:44.915Z,45.53
2019-05-17T10:44:51.063Z,43.63
2019-05-17T10:47:55.808Z,42.34
2019-05-17T10:51:00.534Z,43.77
2019-05-17T10:54:05.273Z,41.65
2019-05-17T10:57:10.440Z,43.52
2019-05-17T11:00:19.540Z,46.00
2019-05-17T11:03:23.767Z,43.20
2019-05-17T11:06:30.239Z,42.91
2019-05-17T11:09:34.378Z,42.79
2019-05-17T11:12:38.826Z,42.63
2019-05-17T11:15:43.616Z,42.26
2019-05-17T11:18:48.059Z,43.42
2019-05-17T11:21:52.512Z,39.84
2019-05-17T11:24:56.961Z,41.77
2019-05-17T11:28:01.404Z,40.39
2019-05-17T11:31:06.266Z,39.28
2019-05-17T11:34:10.684Z,40.30
2019-05-17T11:37:15.513Z,38.25
2019-05-17T11:40:20.590Z,41.19
2019-05-17T11:43:25.027Z,39.28
2019-05-17T11:46:36.152Z,40.91
2019-05-17T11:49:35.957Z,41.73
2019-05-17T11:52:40.702Z,38.62
2019-05-17T11:55:45.417Z,38.46
2019-05-17T11:58:50.153Z,38.23
2019-05-17T12:01:54.897Z,38.87
2019-05-17T12:04:59.397Z,36.59
2019-05-17T12:08:04.144Z,38.89
2019-05-17T12:11:08.872Z,37.27
2019-05-17T12:14:13.594Z,37.76
2019-05-17T12:17:18.099Z,37.67
2019-05-17T12:20:23.068Z,37.68
2019-05-17T12:23:27.499Z,37.31
2019-05-17T12:26:32.217Z,39.11
2019-05-17T12:29:36.661Z,38.56
2019-05-17T12:32:41.372Z,37.46
2019-05-17T12:35:46.117Z,36.64
2019-05-17T12:38:50.548Z,38.59
2019-05-17T12:41:55.430Z,37.10
2019-05-17T12:44:59.866Z,37.05
2019-05-17T12:48:04.312Z,37.77
2019-05-17T12:51:08.855Z,36.94
2019-05-17T12:54:13.291Z,39.80
2019-05-17T12:57:17.744Z,39.36
2019-05-17T13:00:24.092Z,37.44
2019-05-17T13:03:28.538Z,40.09
2019-05-17T13:06:32.988Z,38.73
2019-05-17T13:09:37.431Z,39.24
2019-05-17T13:12:41.868Z,39.24
2019-05-17T13:15:46.311Z,37.94
2019-05-17T13:18:51.107Z,37.88
2019-05-17T13:21:55.828Z,39.88
2019-05-17T13:25:00.270Z,40.44
2019-05-17T13:28:04.986Z,40.86
2019-05-17T13:31:09.431Z,40.76
2019-05-17T13:34:14.141Z,38.71
2019-05-17T13:37:18.587Z,36.74
2019-05-17T13:40:23.423Z,35.43
2019-05-17T13:43:28.392Z,37.66
2019-05-17T13:46:33.736Z,37.79
2019-05-17T13:49:38.337Z,38.49
2019-05-17T13:52:43.036Z,38.37
2019-05-17T13:55:47.771Z,41.01
2019-05-17T13:58:52.500Z,41.61
2019-05-17T14:01:56.961Z,39.14
2019-05-17T14:05:01.390Z,40.13
2019-05-17T14:08:06.181Z,41.32
2019-05-17T14:11:10.617Z,42.14
2019-05-17T14:14:15.369Z,42.59
2019-05-17T14:17:20.065Z,39.43
2019-05-17T14:20:24.808Z,40.42
2019-05-17T14:23:29.254Z,40.55
2019-05-17T14:26:33.697Z,40.49
2019-05-17T14:29:38.153Z,40.40
2019-05-17T14:32:42.595Z,41.35
2019-05-17T14:35:47.031Z,41.13
2019-05-17T14:38:51.484Z,41.97
2019-05-17T14:41:56.167Z,41.86
2019-05-17T14:45:00.611Z,39.91
2019-05-17T14:48:05.441Z,40.37
2019-05-17T14:51:09.912Z,42.34
2019-05-17T14:54:14.480Z,41.29
2019-05-17T14:57:18.947Z,40.37
2019-05-17T15:00:23.445Z,42.44
2019-05-17T15:03:28.159Z,42.97
2019-05-17T15:06:32.603Z,42.09
2019-05-17T15:09:37.058Z,42.59
2019-05-17T15:12:41.491Z,42.41
2019-05-17T15:15:45.938Z,41.47
2019-05-17T15:18:50.390Z,40.44
2019-05-17T15:21:54.820Z,35.90
2019-05-17T15:24:59.593Z,36.80
2019-05-17T15:28:04.364Z,38.18
2019-05-17T15:31:08.799Z,45.41
2019-05-17T15:34:13.248Z,51.00
2019-05-17T15:37:17.756Z,52.97
2019-05-17T15:40:22.570Z,56.21
2019-05-17T15:43:27.303Z,59.02
2019-05-17T15:46:31.735Z,60.57
2019-05-17T15:49:36.182Z,63.32
2019-05-17T15:52:40.979Z,63.42
2019-05-17T15:55:45.717Z,64.32
2019-05-17T15:58:50.162Z,64.94
2019-05-17T16:01:54.607Z,64.58
2019-05-17T16:04:59.392Z,62.98
2019-05-17T16:08:03.843Z,64.22
2019-05-17T16:11:08.300Z,64.02
2019-05-17T16:14:13.075Z,63.54
2019-05-17T16:17:17.507Z,64.04
2019-05-17T16:20:21.960Z,65.74
2019-05-17T16:23:26.651Z,66.09
2019-05-17T16:26:31.388Z,67.15
2019-05-17T16:29:35.830Z,67.81
2019-05-17T16:32:40.269Z,67.00
2019-05-17T16:35:45.063Z,67.40
2019-05-17T16:38:49.826Z,66.61
2019-05-17T16:41:54.232Z,66.68
2019-05-17T16:44:58.953Z,65.64
2019-05-17T16:48:03.394Z,65.03
2019-05-17T16:51:08.215Z,64.98
2019-05-17T16:54:12.937Z,65.21
2019-05-17T16:57:17.670Z,65.24
2019-05-17T17:00:31.712Z,65.26
2019-05-17T17:03:44.339Z,64.89
2019-05-17T17:06:42.610Z,64.49
2019-05-17T17:09:47.048Z,65.42
2019-05-17T17:12:51.817Z,65.51
2019-05-17T17:15:56.508Z,64.97
2019-05-17T17:19:00.952Z,64.81
2019-05-17T17:22:05.853Z,65.17
2019-05-17T17:25:10.706Z,66.65
2019-05-17T17:28:15.420Z,66.61
2019-05-17T17:31:20.199Z,68.79
2019-05-17T17:34:24.649Z,69.57
2019-05-17T17:37:29.403Z,69.14
2019-05-17T17:40:33.851Z,68.46
2019-05-17T17:43:38.560Z,69.36
2019-05-17T17:46:43.289Z,67.70
2019-05-17T17:49:48.021Z,66.47
2019-05-17T17:52:52.633Z,66.22
2019-05-17T17:55:57.073Z,66.06
2019-05-17T17:59:01.511Z,66.49
2019-05-17T18:02:06.029Z,64.09
2019-05-17T18:05:10.817Z,63.77
2019-05-17T18:08:15.247Z,63.18
2019-05-17T18:11:19.698Z,65.66
2019-05-17T18:14:24.127Z,67.44
2019-05-17T18:17:28.597Z,68.26
2019-05-17T18:20:33.031Z,68.45
2019-05-17T18:23:37.468Z,68.95
2019-05-17T18:26:42.229Z,68.52
2019-05-17T18:29:46.659Z,68.94
2019-05-17T18:32:51.108Z,69.60
2019-05-17T18:35:55.544Z,69.76
2019-05-17T18:39:01.055Z,69.90
2019-05-17T18:42:05.791Z,69.68
2019-05-17T18:45:10.525Z,69.35
2019-05-17T18:48:15.030Z,70.60
2019-05-17T18:51:19.768Z,70.52
2019-05-17T18:54:24.230Z,70.14
2019-05-17T18:57:29.030Z,69.65
2019-05-17T19:00:33.863Z,69.50
2019-05-17T19:03:38.302Z,71.09
2019-05-17T19:06:42.742Z,71.10
2019-05-17T19:09:47.441Z,70.82
2019-05-17T19:12:52.172Z,70.89
2019-05-17T19:15:56.615Z,70.73
2019-05-17T19:19:01.057Z,70.43
2019-05-17T19:22:05.846Z,70.86
2019-05-17T19:25:11.499Z,70.44
2019-05-17T19:28:15.952Z,70.68
2019-05-17T19:31:20.653Z,70.51
2019-05-17T19:34:25.110Z,70.19
2019-05-17T19:37:29.560Z,70.16
2019-05-17T19:40:33.987Z,70.65
2019-05-17T19:43:38.749Z,70.73
2019-05-17T19:46:43.206Z,71.33
2019-05-17T19:49:47.640Z,71.33
2019-05-17T19:52:52.338Z,71.39
2019-05-17T19:55:56.782Z,71.58
2019-05-17T19:59:01.214Z,71.69
2019-05-17T20:02:06.675Z,72.25
2019-05-17T20:05:12.766Z,73.09
2019-05-17T20:08:17.207Z,72.92
2019-05-17T20:11:33.579Z,72.96
2019-05-17T20:14:28.431Z,73.04
2019-05-17T20:17:33.148Z,73.21
2019-05-17T20:20:37.594Z,73.46
2019-05-17T20:23:43.714Z,73.61
2019-05-17T20:26:48.452Z,73.31
2019-05-17T20:29:53.205Z,72.55
2019-05-17T20:32:57.657Z,73.01
2019-05-17T20:36:02.379Z,73.13
2019-05-17T20:39:07.799Z,73.79
2019-05-17T20:42:12.732Z,73.64
2019-05-17T20:45:31.684Z,73.63
2019-05-17T20:48:25.882Z,73.10
2019-05-17T20:51:29.711Z,73.63
2019-05-17T20:54:34.152Z,74.15
2019-05-17T20:57:38.950Z,74.17
2019-05-17T21:00:44.090Z,73.77
2019-05-17T21:03:48.565Z,73.32
2019-05-17T21:06:53.350Z,73.25
2019-05-17T21:09:57.784Z,73.80
2019-05-17T21:13:02.543Z,74.18
2019-05-17T21:16:07.016Z,73.28
2019-05-17T21:19:11.465Z,73.34
2019-05-17T21:22:15.918Z,73.06
2019-05-17T21:25:20.600Z,73.68
2019-05-17T21:28:25.435Z,73.56
2019-05-17T21:31:30.148Z,73.76
2019-05-17T21:34:34.896Z,72.24
2019-05-17T21:37:39.341Z,69.74
2019-05-17T21:40:44.061Z,70.41
2019-05-17T21:43:48.505Z,70.43
2019-05-17T21:47:04.248Z,70.78
2019-05-17T21:49:59.477Z,70.25
2019-05-17T21:53:03.921Z,70.19
2019-05-17T21:56:08.360Z,69.92
2019-05-17T21:59:12.945Z,70.54
2019-05-17T22:02:17.582Z,71.48
2019-05-17T22:05:22.306Z,71.32
2019-05-17T22:08:27.044Z,71.85
2019-05-17T22:11:31.773Z,72.25
2019-05-17T22:14:36.220Z,72.49
2019-05-17T22:17:40.938Z,72.13
2019-05-17T22:20:45.367Z,72.15
2019-05-17T22:23:49.881Z,71.77
2019-05-17T22:26:54.317Z,72.12
2019-05-17T22:29:58.766Z,73.13
2019-05-17T22:33:03.206Z,73.31
2019-05-17T22:36:07.979Z,73.71
2019-05-17T22:39:12.420Z,73.74
2019-05-17T22:42:16.858Z,74.17
2019-05-17T22:45:21.316Z,74.34
2019-05-17T22:48:26.087Z,74.36
2019-05-17T22:51:30.513Z,74.48
2019-05-17T22:54:34.958Z,74.42
2019-05-17T22:57:39.394Z,73.25
2019-05-17T23:00:43.919Z,74.32
2019-05-17T23:03:48.358Z,74.60
2019-05-17T23:06:52.793Z,74.10
2019-05-17T23:09:57.242Z,73.89
2019-05-17T23:13:01.995Z,73.27
2019-05-17T23:16:08.074Z,73.05
2019-05-17T23:19:12.586Z,73.13
2019-05-17T23:22:17.406Z,73.92
2019-05-17T23:25:21.850Z,73.70
2019-05-17T23:28:26.565Z,73.80
2019-05-17T23:31:31.387Z,73.97
2019-05-17T23:34:35.839Z,74.50
2019-05-17T23:37:40.278Z,75.06
2019-05-17T23:40:44.729Z,75.31
2019-05-17T23:43:49.162Z,75.90
2019-05-17T23:47:05.999Z,75.81
2019-05-17T23:50:00.083Z,76.12
2019-05-17T23:53:04.813Z,76.25
2019-05-17T23:56:09.256Z,75.94
2019-05-17T23:59:13.706Z,76.79
